sensor_id;sensor_type;location;lat;lon;timestamp;temperature;humidity
15328;DHT22;7764;51.430;6.840;2022-08-05T00:01:39;21.10;99.90
15328;DHT22;7764;51.430;6.840;2022-08-05T00:04:06;21.10;99.90
15328;DHT22;7764;51.430;6.840;2022-08-05T00:06:33;21.20;99.90
15328;DHT22;7764;51.430;6.840;2022-08-05T00:09:00;21.10;99.90
15328;DHT22;7764;51.430;6.840;2022-08-05T00:11:27;21.00;99.90
15328;DHT22;7764;51.430;6.840;2022-08-05T00:13:54;21.00;99.90
15328;DHT22;7764;51.430;6.840;2022-08-05T00:16:21;21.00;99.90
15328;DHT22;7764;51.430;6.840;2022-08-05T00:18:50;21.00;99.90
15328;DHT22;7764;51.430;6.840;2022-08-05T00:21:17;21.00;99.90
15328;DHT22;7764;51.430;6.840;2022-08-05T00:23:46;21.00;99.90
15328;DHT22;7764;51.430;6.840;2022-08-05T00:26:14;20.90;99.90
15328;DHT22;7764;51.430;6.840;2022-08-05T00:28:42;20.90;99.90
15328;DHT22;7764;51.430;6.840;2022-08-05T00:31:09;20.80;99.90
15328;DHT22;7764;51.430;6.840;2022-08-05T00:33:36;20.80;99.90
15328;DHT22;7764;51.430;6.840;2022-08-05T00:36:04;20.70;99.90
15328;DHT22;7764;51.430;6.840;2022-08-05T00:38:31;20.60;99.90
15328;DHT22;7764;51.430;6.840;2022-08-05T00:40:58;20.60;99.90
15328;DHT22;7764;51.430;6.840;2022-08-05T00:43:25;20.60;99.90
15328;DHT22;7764;51.430;6.840;2022-08-05T00:45:53;20.50;99.90
15328;DHT22;7764;51.430;6.840;2022-08-05T00:48:21;20.50;99.90
15328;DHT22;7764;51.430;6.840;2022-08-05T00:50:50;20.40;99.90
15328;DHT22;7764;51.430;6.840;2022-08-05T00:53:20;20.40;99.90
15328;DHT22;7764;51.430;6.840;2022-08-05T00:55:48;20.30;99.90
15328;DHT22;7764;51.430;6.840;2022-08-05T00:58:15;20.20;99.90
15328;DHT22;7764;51.430;6.840;2022-08-05T01:00:43;20.10;99.90
15328;DHT22;7764;51.430;6.840;2022-08-05T01:03:11;20.10;99.90
15328;DHT22;7764;51.430;6.840;2022-08-05T01:05:38;20.10;99.90
15328;DHT22;7764;51.430;6.840;2022-08-05T01:08:05;20.10;99.90
15328;DHT22;7764;51.430;6.840;2022-08-05T01:10:40;20.10;99.90
15328;DHT22;7764;51.430;6.840;2022-08-05T01:13:15;20.00;99.90
15328;DHT22;7764;51.430;6.840;2022-08-05T01:15:47;20.00;99.90
15328;DHT22;7764;51.430;6.840;2022-08-05T01:18:22;20.00;99.90
15328;DHT22;7764;51.430;6.840;2022-08-05T01:21:01;20.00;99.90
15328;DHT22;7764;51.430;6.840;2022-08-05T01:23:43;19.90;99.90
15328;DHT22;7764;51.430;6.840;2022-08-05T01:26:43;19.90;99.90
15328;DHT22;7764;51.430;6.840;2022-08-05T01:29:18;19.90;99.90
15328;DHT22;7764;51.430;6.840;2022-08-05T01:31:48;19.90;99.90
15328;DHT22;7764;51.430;6.840;2022-08-05T01:34:19;19.90;99.90
15328;DHT22;7764;51.430;6.840;2022-08-05T01:36:54;19.80;99.90
15328;DHT22;7764;51.430;6.840;2022-08-05T01:39:24;19.80;99.90
15328;DHT22;7764;51.430;6.840;2022-08-05T01:41:53;19.80;99.90
15328;DHT22;7764;51.430;6.840;2022-08-05T01:44:22;19.80;99.90
15328;DHT22;7764;51.430;6.840;2022-08-05T01:46:51;19.80;99.90
15328;DHT22;7764;51.430;6.840;2022-08-05T01:49:21;19.80;99.90
15328;DHT22;7764;51.430;6.840;2022-08-05T01:51:53;19.80;99.90
15328;DHT22;7764;51.430;6.840;2022-08-05T01:54:21;19.70;99.90
15328;DHT22;7764;51.430;6.840;2022-08-05T01:56:49;19.60;99.90
15328;DHT22;7764;51.430;6.840;2022-08-05T01:59:20;19.70;99.90
15328;DHT22;7764;51.430;6.840;2022-08-05T02:01:51;19.60;99.90
15328;DHT22;7764;51.430;6.840;2022-08-05T02:04:19;19.70;99.90
15328;DHT22;7764;51.430;6.840;2022-08-05T02:06:48;19.70;99.90
15328;DHT22;7764;51.430;6.840;2022-08-05T02:09:15;19.60;99.90
15328;DHT22;7764;51.430;6.840;2022-08-05T02:11:46;19.60;99.90
15328;DHT22;7764;51.430;6.840;2022-08-05T02:14:18;19.60;99.90
15328;DHT22;7764;51.430;6.840;2022-08-05T02:16:50;19.70;99.90
15328;DHT22;7764;51.430;6.840;2022-08-05T02:19:23;19.80;99.90
15328;DHT22;7764;51.430;6.840;2022-08-05T02:21:58;19.80;99.90
15328;DHT22;7764;51.430;6.840;2022-08-05T02:24:30;19.80;99.90
15328;DHT22;7764;51.430;6.840;2022-08-05T02:27:00;19.80;99.90
15328;DHT22;7764;51.430;6.840;2022-08-05T02:29:29;19.80;99.90
15328;DHT22;7764;51.430;6.840;2022-08-05T02:31:59;19.80;99.90
15328;DHT22;7764;51.430;6.840;2022-08-05T02:34:30;19.80;99.90
15328;DHT22;7764;51.430;6.840;2022-08-05T02:37:01;19.70;99.90
15328;DHT22;7764;51.430;6.840;2022-08-05T02:39:30;19.80;99.90
15328;DHT22;7764;51.430;6.840;2022-08-05T02:42:01;19.60;99.90
15328;DHT22;7764;51.430;6.840;2022-08-05T02:44:29;19.60;99.90
15328;DHT22;7764;51.430;6.840;2022-08-05T02:46:59;19.50;99.90
15328;DHT22;7764;51.430;6.840;2022-08-05T02:49:30;19.60;99.90
15328;DHT22;7764;51.430;6.840;2022-08-05T02:51:57;19.60;99.90
15328;DHT22;7764;51.430;6.840;2022-08-05T02:54:25;19.60;99.90
15328;DHT22;7764;51.430;6.840;2022-08-05T02:56:53;19.60;99.90
15328;DHT22;7764;51.430;6.840;2022-08-05T02:59:21;19.60;99.90
15328;DHT22;7764;51.430;6.840;2022-08-05T03:01:51;19.50;99.90
15328;DHT22;7764;51.430;6.840;2022-08-05T03:04:24;19.50;99.90
15328;DHT22;7764;51.430;6.840;2022-08-05T03:06:51;19.50;99.90
15328;DHT22;7764;51.430;6.840;2022-08-05T03:09:18;19.50;99.90
15328;DHT22;7764;51.430;6.840;2022-08-05T03:11:45;19.40;99.90
15328;DHT22;7764;51.430;6.840;2022-08-05T03:14:12;19.50;99.90
15328;DHT22;7764;51.430;6.840;2022-08-05T03:16:39;19.50;99.90
15328;DHT22;7764;51.430;6.840;2022-08-05T03:19:06;19.40;99.90
15328;DHT22;7764;51.430;6.840;2022-08-05T03:21:34;19.50;99.90
15328;DHT22;7764;51.430;6.840;2022-08-05T03:24:02;19.40;99.90
15328;DHT22;7764;51.430;6.840;2022-08-05T03:26:30;19.40;99.90
15328;DHT22;7764;51.430;6.840;2022-08-05T03:28:57;19.30;99.90
15328;DHT22;7764;51.430;6.840;2022-08-05T03:31:24;19.30;99.90
15328;DHT22;7764;51.430;6.840;2022-08-05T03:33:51;19.30;99.90
15328;DHT22;7764;51.430;6.840;2022-08-05T03:36:18;19.30;99.90
15328;DHT22;7764;51.430;6.840;2022-08-05T03:38:47;19.40;99.90
15328;DHT22;7764;51.430;6.840;2022-08-05T03:41:14;19.30;99.90
15328;DHT22;7764;51.430;6.840;2022-08-05T03:43:41;19.30;99.90
15328;DHT22;7764;51.430;6.840;2022-08-05T03:46:08;19.40;99.90
15328;DHT22;7764;51.430;6.840;2022-08-05T03:48:35;19.40;99.90
15328;DHT22;7764;51.430;6.840;2022-08-05T03:51:07;19.30;99.90
15328;DHT22;7764;51.430;6.840;2022-08-05T03:53:38;19.30;99.90
15328;DHT22;7764;51.430;6.840;2022-08-05T03:56:18;19.20;99.90
15328;DHT22;7764;51.430;6.840;2022-08-05T03:58:48;19.30;99.90
15328;DHT22;7764;51.430;6.840;2022-08-05T04:01:18;19.30;99.90
15328;DHT22;7764;51.430;6.840;2022-08-05T04:03:48;19.30;99.90
15328;DHT22;7764;51.430;6.840;2022-08-05T04:06:17;19.30;99.90
15328;DHT22;7764;51.430;6.840;2022-08-05T04:08:44;19.30;99.90
15328;DHT22;7764;51.430;6.840;2022-08-05T04:11:12;19.30;99.90
15328;DHT22;7764;51.430;6.840;2022-08-05T04:13:40;19.30;99.90
15328;DHT22;7764;51.430;6.840;2022-08-05T04:16:08;19.30;99.90
15328;DHT22;7764;51.430;6.840;2022-08-05T04:18:35;19.30;99.90
15328;DHT22;7764;51.430;6.840;2022-08-05T04:21:04;19.30;99.90
15328;DHT22;7764;51.430;6.840;2022-08-05T04:23:33;19.30;99.90
15328;DHT22;7764;51.430;6.840;2022-08-05T04:26:00;19.30;99.90
15328;DHT22;7764;51.430;6.840;2022-08-05T04:28:28;19.30;99.90
15328;DHT22;7764;51.430;6.840;2022-08-05T04:30:55;19.30;99.90
15328;DHT22;7764;51.430;6.840;2022-08-05T04:33:22;19.30;99.90
15328;DHT22;7764;51.430;6.840;2022-08-05T04:35:49;19.30;99.90
15328;DHT22;7764;51.430;6.840;2022-08-05T04:38:15;19.30;99.90
15328;DHT22;7764;51.430;6.840;2022-08-05T04:40:42;19.40;99.90
15328;DHT22;7764;51.430;6.840;2022-08-05T04:43:09;19.40;99.90
15328;DHT22;7764;51.430;6.840;2022-08-05T04:45:37;19.40;99.90
15328;DHT22;7764;51.430;6.840;2022-08-05T04:48:05;19.40;99.90
15328;DHT22;7764;51.430;6.840;2022-08-05T04:50:38;19.40;99.90
15328;DHT22;7764;51.430;6.840;2022-08-05T04:53:05;19.40;99.90
15328;DHT22;7764;51.430;6.840;2022-08-05T04:55:32;19.40;99.90
15328;DHT22;7764;51.430;6.840;2022-08-05T04:57:59;19.30;99.90
15328;DHT22;7764;51.430;6.840;2022-08-05T05:00:26;19.20;99.90
15328;DHT22;7764;51.430;6.840;2022-08-05T05:02:54;19.10;99.90
15328;DHT22;7764;51.430;6.840;2022-08-05T05:05:21;19.20;99.90
15328;DHT22;7764;51.430;6.840;2022-08-05T05:07:48;19.20;99.90
15328;DHT22;7764;51.430;6.840;2022-08-05T05:10:15;19.00;99.90
15328;DHT22;7764;51.430;6.840;2022-08-05T05:12:42;19.10;99.90
15328;DHT22;7764;51.430;6.840;2022-08-05T05:15:10;19.20;99.90
15328;DHT22;7764;51.430;6.840;2022-08-05T05:17:37;19.10;99.90
15328;DHT22;7764;51.430;6.840;2022-08-05T05:20:07;19.10;99.90
15328;DHT22;7764;51.430;6.840;2022-08-05T05:22:35;19.20;99.90
15328;DHT22;7764;51.430;6.840;2022-08-05T05:25:03;19.30;99.90
15328;DHT22;7764;51.430;6.840;2022-08-05T05:27:32;19.30;99.90
15328;DHT22;7764;51.430;6.840;2022-08-05T05:29:59;19.30;99.90
15328;DHT22;7764;51.430;6.840;2022-08-05T05:32:26;19.20;99.90
15328;DHT22;7764;51.430;6.840;2022-08-05T05:34:53;19.20;99.90
15328;DHT22;7764;51.430;6.840;2022-08-05T05:37:22;19.10;99.90
15328;DHT22;7764;51.430;6.840;2022-08-05T05:39:48;19.20;99.90
15328;DHT22;7764;51.430;6.840;2022-08-05T05:42:16;19.20;99.90
15328;DHT22;7764;51.430;6.840;2022-08-05T05:44:42;19.30;99.90
15328;DHT22;7764;51.430;6.840;2022-08-05T05:47:09;19.30;99.90
15328;DHT22;7764;51.430;6.840;2022-08-05T05:49:36;19.20;99.90
15328;DHT22;7764;51.430;6.840;2022-08-05T05:52:03;19.20;99.90
15328;DHT22;7764;51.430;6.840;2022-08-05T05:54:32;19.10;99.90
15328;DHT22;7764;51.430;6.840;2022-08-05T05:56:59;19.00;99.90
15328;DHT22;7764;51.430;6.840;2022-08-05T05:59:26;19.10;99.90
15328;DHT22;7764;51.430;6.840;2022-08-05T06:01:53;19.10;99.90
15328;DHT22;7764;51.430;6.840;2022-08-05T06:04:19;19.10;99.90
15328;DHT22;7764;51.430;6.840;2022-08-05T06:06:46;19.00;99.90
15328;DHT22;7764;51.430;6.840;2022-08-05T06:09:13;19.00;99.90
15328;DHT22;7764;51.430;6.840;2022-08-05T06:11:41;18.90;99.90
15328;DHT22;7764;51.430;6.840;2022-08-05T06:14:10;18.90;99.90
15328;DHT22;7764;51.430;6.840;2022-08-05T06:16:37;18.70;99.90
15328;DHT22;7764;51.430;6.840;2022-08-05T06:19:04;18.60;99.90
15328;DHT22;7764;51.430;6.840;2022-08-05T06:21:31;18.70;99.90
15328;DHT22;7764;51.430;6.840;2022-08-05T06:23:58;18.70;99.90
15328;DHT22;7764;51.430;6.840;2022-08-05T06:26:25;18.70;99.90
15328;DHT22;7764;51.430;6.840;2022-08-05T06:28:53;18.70;99.90
15328;DHT22;7764;51.430;6.840;2022-08-05T06:31:20;18.60;99.90
15328;DHT22;7764;51.430;6.840;2022-08-05T06:33:47;18.60;99.90
15328;DHT22;7764;51.430;6.840;2022-08-05T06:36:13;18.40;99.90
15328;DHT22;7764;51.430;6.840;2022-08-05T06:38:40;18.50;99.90
15328;DHT22;7764;51.430;6.840;2022-08-05T06:41:07;18.40;99.90
15328;DHT22;7764;51.430;6.840;2022-08-05T06:43:34;18.40;99.90
15328;DHT22;7764;51.430;6.840;2022-08-05T06:46:02;18.40;99.90
15328;DHT22;7764;51.430;6.840;2022-08-05T06:48:29;18.40;99.90
15328;DHT22;7764;51.430;6.840;2022-08-05T06:50:58;18.40;99.90
15328;DHT22;7764;51.430;6.840;2022-08-05T06:53:26;18.40;99.90
15328;DHT22;7764;51.430;6.840;2022-08-05T06:55:52;18.30;99.90
15328;DHT22;7764;51.430;6.840;2022-08-05T06:58:19;18.40;99.90
15328;DHT22;7764;51.430;6.840;2022-08-05T07:00:46;18.50;99.90
15328;DHT22;7764;51.430;6.840;2022-08-05T07:03:14;18.50;99.90
15328;DHT22;7764;51.430;6.840;2022-08-05T07:05:41;18.50;99.90
15328;DHT22;7764;51.430;6.840;2022-08-05T07:08:08;18.50;99.90
15328;DHT22;7764;51.430;6.840;2022-08-05T07:10:35;18.50;99.90
15328;DHT22;7764;51.430;6.840;2022-08-05T07:13:02;18.50;99.90
15328;DHT22;7764;51.430;6.840;2022-08-05T07:15:46;18.50;99.90
15328;DHT22;7764;51.430;6.840;2022-08-05T07:18:31;18.50;99.90
15328;DHT22;7764;51.430;6.840;2022-08-05T07:20:58;18.70;99.90
15328;DHT22;7764;51.430;6.840;2022-08-05T07:23:25;18.60;99.90
15328;DHT22;7764;51.430;6.840;2022-08-05T07:25:52;18.60;99.90
15328;DHT22;7764;51.430;6.840;2022-08-05T07:28:19;18.50;99.90
15328;DHT22;7764;51.430;6.840;2022-08-05T07:30:46;18.60;99.90
15328;DHT22;7764;51.430;6.840;2022-08-05T07:33:13;18.50;99.90
15328;DHT22;7764;51.430;6.840;2022-08-05T07:35:41;18.50;99.90
15328;DHT22;7764;51.430;6.840;2022-08-05T07:38:08;18.40;99.90
15328;DHT22;7764;51.430;6.840;2022-08-05T07:40:35;18.40;99.90
15328;DHT22;7764;51.430;6.840;2022-08-05T07:43:02;18.40;99.90
15328;DHT22;7764;51.430;6.840;2022-08-05T07:45:29;18.50;99.90
15328;DHT22;7764;51.430;6.840;2022-08-05T07:47:57;18.60;99.90
15328;DHT22;7764;51.430;6.840;2022-08-05T07:50:24;18.60;99.90
15328;DHT22;7764;51.430;6.840;2022-08-05T07:52:52;18.60;99.90
15328;DHT22;7764;51.430;6.840;2022-08-05T07:55:19;18.50;99.90
15328;DHT22;7764;51.430;6.840;2022-08-05T07:57:46;18.40;99.90
15328;DHT22;7764;51.430;6.840;2022-08-05T08:00:14;18.40;99.90
15328;DHT22;7764;51.430;6.840;2022-08-05T08:02:41;18.40;99.90
15328;DHT22;7764;51.430;6.840;2022-08-05T08:05:09;18.30;99.90
15328;DHT22;7764;51.430;6.840;2022-08-05T08:07:36;18.10;99.90
15328;DHT22;7764;51.430;6.840;2022-08-05T08:10:06;18.20;99.90
15328;DHT22;7764;51.430;6.840;2022-08-05T08:12:33;18.30;99.90
15328;DHT22;7764;51.430;6.840;2022-08-05T08:15:00;18.40;99.90
15328;DHT22;7764;51.430;6.840;2022-08-05T08:17:27;18.30;99.90
15328;DHT22;7764;51.430;6.840;2022-08-05T08:19:54;18.20;99.90
15328;DHT22;7764;51.430;6.840;2022-08-05T08:22:25;18.30;99.90
15328;DHT22;7764;51.430;6.840;2022-08-05T08:24:52;18.40;99.90
15328;DHT22;7764;51.430;6.840;2022-08-05T08:27:20;18.40;99.90
15328;DHT22;7764;51.430;6.840;2022-08-05T08:29:47;18.30;99.90
15328;DHT22;7764;51.430;6.840;2022-08-05T08:32:14;18.50;99.90
15328;DHT22;7764;51.430;6.840;2022-08-05T08:34:42;18.40;99.90
15328;DHT22;7764;51.430;6.840;2022-08-05T08:37:13;18.40;99.90
15328;DHT22;7764;51.430;6.840;2022-08-05T08:39:39;18.50;99.90
15328;DHT22;7764;51.430;6.840;2022-08-05T08:42:08;18.50;99.90
15328;DHT22;7764;51.430;6.840;2022-08-05T08:44:37;18.40;99.90
15328;DHT22;7764;51.430;6.840;2022-08-05T08:47:06;18.40;99.90
15328;DHT22;7764;51.430;6.840;2022-08-05T08:49:34;18.40;99.90
15328;DHT22;7764;51.430;6.840;2022-08-05T08:52:10;18.40;99.90
15328;DHT22;7764;51.430;6.840;2022-08-05T08:54:38;18.50;99.90
15328;DHT22;7764;51.430;6.840;2022-08-05T08:57:06;18.50;99.90
15328;DHT22;7764;51.430;6.840;2022-08-05T08:59:33;18.60;99.90
15328;DHT22;7764;51.430;6.840;2022-08-05T09:02:04;18.60;99.90
15328;DHT22;7764;51.430;6.840;2022-08-05T09:04:33;18.70;99.90
15328;DHT22;7764;51.430;6.840;2022-08-05T09:07:03;18.80;99.90
15328;DHT22;7764;51.430;6.840;2022-08-05T09:09:34;18.70;99.90
15328;DHT22;7764;51.430;6.840;2022-08-05T09:12:02;18.70;99.90
15328;DHT22;7764;51.430;6.840;2022-08-05T09:14:30;18.70;99.90
15328;DHT22;7764;51.430;6.840;2022-08-05T09:16:58;18.80;99.90
15328;DHT22;7764;51.430;6.840;2022-08-05T09:19:27;18.90;99.90
15328;DHT22;7764;51.430;6.840;2022-08-05T09:21:54;18.80;99.90
15328;DHT22;7764;51.430;6.840;2022-08-05T09:24:21;18.90;99.90
15328;DHT22;7764;51.430;6.840;2022-08-05T09:26:50;18.90;99.90
15328;DHT22;7764;51.430;6.840;2022-08-05T09:29:18;19.00;99.90
15328;DHT22;7764;51.430;6.840;2022-08-05T09:32:01;19.10;99.90
15328;DHT22;7764;51.430;6.840;2022-08-05T09:34:45;19.10;99.90
15328;DHT22;7764;51.430;6.840;2022-08-05T09:37:16;19.10;99.90
15328;DHT22;7764;51.430;6.840;2022-08-05T09:39:43;19.10;99.90
15328;DHT22;7764;51.430;6.840;2022-08-05T09:42:11;19.20;99.90
15328;DHT22;7764;51.430;6.840;2022-08-05T09:44:41;19.20;99.90
15328;DHT22;7764;51.430;6.840;2022-08-05T09:47:11;19.30;99.90
15328;DHT22;7764;51.430;6.840;2022-08-05T09:49:43;19.30;99.90
15328;DHT22;7764;51.430;6.840;2022-08-05T09:52:22;19.30;99.90
15328;DHT22;7764;51.430;6.840;2022-08-05T09:54:58;19.30;99.90
15328;DHT22;7764;51.430;6.840;2022-08-05T09:57:33;19.40;99.90
15328;DHT22;7764;51.430;6.840;2022-08-05T10:00:04;19.50;99.90
15328;DHT22;7764;51.430;6.840;2022-08-05T10:02:42;19.80;99.90
15328;DHT22;7764;51.430;6.840;2022-08-05T10:05:17;19.90;99.90
15328;DHT22;7764;51.430;6.840;2022-08-05T10:07:46;19.90;99.90
15328;DHT22;7764;51.430;6.840;2022-08-05T10:10:19;20.00;99.90
15328;DHT22;7764;51.430;6.840;2022-08-05T10:12:48;20.00;99.90
15328;DHT22;7764;51.430;6.840;2022-08-05T10:15:20;20.20;99.90
15328;DHT22;7764;51.430;6.840;2022-08-05T10:18:12;20.30;99.90
15328;DHT22;7764;51.430;6.840;2022-08-05T10:20:45;20.50;99.90
15328;DHT22;7764;51.430;6.840;2022-08-05T10:23:14;20.50;99.90
15328;DHT22;7764;51.430;6.840;2022-08-05T10:25:41;20.50;99.90
15328;DHT22;7764;51.430;6.840;2022-08-05T10:28:08;20.70;99.90
15328;DHT22;7764;51.430;6.840;2022-08-05T10:30:36;20.80;99.90
15328;DHT22;7764;51.430;6.840;2022-08-05T10:33:03;20.90;99.90
15328;DHT22;7764;51.430;6.840;2022-08-05T10:35:31;21.00;99.90
15328;DHT22;7764;51.430;6.840;2022-08-05T10:38:00;21.40;99.90
15328;DHT22;7764;51.430;6.840;2022-08-05T10:40:32;21.40;99.90
15328;DHT22;7764;51.430;6.840;2022-08-05T10:43:11;21.50;99.90
15328;DHT22;7764;51.430;6.840;2022-08-05T10:45:38;21.50;99.90
15328;DHT22;7764;51.430;6.840;2022-08-05T10:48:28;21.80;99.90
15328;DHT22;7764;51.430;6.840;2022-08-05T10:51:01;21.90;99.90
15328;DHT22;7764;51.430;6.840;2022-08-05T10:53:41;22.10;99.90
15328;DHT22;7764;51.430;6.840;2022-08-05T10:56:11;21.90;99.90
15328;DHT22;7764;51.430;6.840;2022-08-05T10:58:48;21.60;99.90
15328;DHT22;7764;51.430;6.840;2022-08-05T11:01:15;21.80;99.90
15328;DHT22;7764;51.430;6.840;2022-08-05T11:03:59;22.00;99.90
15328;DHT22;7764;51.430;6.840;2022-08-05T11:06:26;22.10;99.90
15328;DHT22;7764;51.430;6.840;2022-08-05T11:09:33;22.40;99.90
15328;DHT22;7764;51.430;6.840;2022-08-05T11:12:02;22.40;99.90
15328;DHT22;7764;51.430;6.840;2022-08-05T11:14:31;22.30;99.90
15328;DHT22;7764;51.430;6.840;2022-08-05T11:17:28;22.50;99.90
15328;DHT22;7764;51.430;6.840;2022-08-05T11:19:56;22.50;99.90
15328;DHT22;7764;51.430;6.840;2022-08-05T11:22:43;22.30;99.90
15328;DHT22;7764;51.430;6.840;2022-08-05T11:25:34;22.30;99.90
15328;DHT22;7764;51.430;6.840;2022-08-05T11:31:22;22.70;99.90
15328;DHT22;7764;51.430;6.840;2022-08-05T11:33:54;22.90;99.90
15328;DHT22;7764;51.430;6.840;2022-08-05T11:36:41;22.80;99.90
15328;DHT22;7764;51.430;6.840;2022-08-05T11:39:12;22.60;99.90
15328;DHT22;7764;51.430;6.840;2022-08-05T11:41:47;22.70;99.90
15328;DHT22;7764;51.430;6.840;2022-08-05T11:44:16;22.90;99.90
15328;DHT22;7764;51.430;6.840;2022-08-05T11:46:47;23.00;99.90
15328;DHT22;7764;51.430;6.840;2022-08-05T11:49:15;23.20;99.90
15328;DHT22;7764;51.430;6.840;2022-08-05T11:51:43;23.10;99.90
15328;DHT22;7764;51.430;6.840;2022-08-05T11:54:11;22.80;99.90
15328;DHT22;7764;51.430;6.840;2022-08-05T11:56:44;23.00;99.90
15328;DHT22;7764;51.430;6.840;2022-08-05T11:59:15;22.90;99.90
15328;DHT22;7764;51.430;6.840;2022-08-05T12:01:56;22.90;99.90
15328;DHT22;7764;51.430;6.840;2022-08-05T12:04:25;23.20;99.90
15328;DHT22;7764;51.430;6.840;2022-08-05T12:06:52;23.30;99.90
15328;DHT22;7764;51.430;6.840;2022-08-05T12:09:23;23.40;99.90
15328;DHT22;7764;51.430;6.840;2022-08-05T12:11:52;23.00;99.90
15328;DHT22;7764;51.430;6.840;2022-08-05T12:14:19;23.10;99.90
15328;DHT22;7764;51.430;6.840;2022-08-05T12:16:48;23.10;99.90
15328;DHT22;7764;51.430;6.840;2022-08-05T12:19:16;23.00;99.90
15328;DHT22;7764;51.430;6.840;2022-08-05T12:21:45;23.10;99.90
15328;DHT22;7764;51.430;6.840;2022-08-05T12:24:14;23.30;99.90
15328;DHT22;7764;51.430;6.840;2022-08-05T12:26:44;23.40;99.90
15328;DHT22;7764;51.430;6.840;2022-08-05T12:29:15;23.50;99.90
15328;DHT22;7764;51.430;6.840;2022-08-05T12:31:47;23.60;99.90
15328;DHT22;7764;51.430;6.840;2022-08-05T12:34:15;23.20;99.90
15328;DHT22;7764;51.430;6.840;2022-08-05T12:36:44;23.20;99.90
15328;DHT22;7764;51.430;6.840;2022-08-05T12:39:12;23.20;99.90
15328;DHT22;7764;51.430;6.840;2022-08-05T12:41:42;23.20;99.90
15328;DHT22;7764;51.430;6.840;2022-08-05T12:44:11;23.10;99.90
15328;DHT22;7764;51.430;6.840;2022-08-05T12:46:41;23.10;99.90
15328;DHT22;7764;51.430;6.840;2022-08-05T12:49:11;23.00;99.90
15328;DHT22;7764;51.430;6.840;2022-08-05T12:51:45;23.10;99.90
15328;DHT22;7764;51.430;6.840;2022-08-05T12:54:19;23.00;99.90
15328;DHT22;7764;51.430;6.840;2022-08-05T12:56:48;23.10;99.90
15328;DHT22;7764;51.430;6.840;2022-08-05T12:59:20;23.10;99.90
15328;DHT22;7764;51.430;6.840;2022-08-05T13:01:59;23.00;99.90
15328;DHT22;7764;51.430;6.840;2022-08-05T13:04:27;23.00;99.90
15328;DHT22;7764;51.430;6.840;2022-08-05T13:06:56;22.80;99.90
15328;DHT22;7764;51.430;6.840;2022-08-05T13:09:26;22.90;99.90
15328;DHT22;7764;51.430;6.840;2022-08-05T13:12:02;22.90;99.90
15328;DHT22;7764;51.430;6.840;2022-08-05T13:14:36;22.90;99.90
15328;DHT22;7764;51.430;6.840;2022-08-05T13:17:08;22.90;99.90
15328;DHT22;7764;51.430;6.840;2022-08-05T13:19:36;22.90;99.90
15328;DHT22;7764;51.430;6.840;2022-08-05T13:22:05;23.00;99.90
15328;DHT22;7764;51.430;6.840;2022-08-05T13:24:32;22.90;99.90
15328;DHT22;7764;51.430;6.840;2022-08-05T13:27:00;22.90;99.90
15328;DHT22;7764;51.430;6.840;2022-08-05T13:29:30;22.80;99.90
15328;DHT22;7764;51.430;6.840;2022-08-05T13:31:56;22.80;99.90
15328;DHT22;7764;51.430;6.840;2022-08-05T13:34:24;22.70;99.90
15328;DHT22;7764;51.430;6.840;2022-08-05T13:36:51;22.70;99.90
15328;DHT22;7764;51.430;6.840;2022-08-05T13:39:18;22.50;99.90
15328;DHT22;7764;51.430;6.840;2022-08-05T13:41:45;22.60;99.90
15328;DHT22;7764;51.430;6.840;2022-08-05T13:44:12;22.50;99.90
15328;DHT22;7764;51.430;6.840;2022-08-05T13:46:40;22.50;99.90
15328;DHT22;7764;51.430;6.840;2022-08-05T13:49:07;22.50;99.90
15328;DHT22;7764;51.430;6.840;2022-08-05T13:51:34;22.50;99.90
15328;DHT22;7764;51.430;6.840;2022-08-05T13:54:01;22.50;99.90
15328;DHT22;7764;51.430;6.840;2022-08-05T13:56:28;22.50;99.90
15328;DHT22;7764;51.430;6.840;2022-08-05T13:58:55;22.40;99.90
15328;DHT22;7764;51.430;6.840;2022-08-05T14:01:22;22.50;99.90
15328;DHT22;7764;51.430;6.840;2022-08-05T14:03:51;22.60;99.90
15328;DHT22;7764;51.430;6.840;2022-08-05T14:06:36;22.80;99.90
15328;DHT22;7764;51.430;6.840;2022-08-05T14:09:03;23.00;99.90
15328;DHT22;7764;51.430;6.840;2022-08-05T14:11:30;23.10;99.90
15328;DHT22;7764;51.430;6.840;2022-08-05T14:13:57;23.20;99.90
15328;DHT22;7764;51.430;6.840;2022-08-05T14:16:24;23.30;99.90
15328;DHT22;7764;51.430;6.840;2022-08-05T14:18:52;23.50;99.90
15328;DHT22;7764;51.430;6.840;2022-08-05T14:21:19;23.60;99.90
15328;DHT22;7764;51.430;6.840;2022-08-05T14:23:48;23.60;99.90
15328;DHT22;7764;51.430;6.840;2022-08-05T14:26:15;23.80;99.90
15328;DHT22;7764;51.430;6.840;2022-08-05T14:28:41;23.70;99.90
15328;DHT22;7764;51.430;6.840;2022-08-05T14:31:09;23.70;99.90
15328;DHT22;7764;51.430;6.840;2022-08-05T14:33:36;23.60;99.90
15328;DHT22;7764;51.430;6.840;2022-08-05T14:36:05;23.50;99.90
15328;DHT22;7764;51.430;6.840;2022-08-05T14:38:32;23.50;99.90
15328;DHT22;7764;51.430;6.840;2022-08-05T14:40:59;23.50;99.90
15328;DHT22;7764;51.430;6.840;2022-08-05T14:43:27;23.60;98.10
15328;DHT22;7764;51.430;6.840;2022-08-05T14:45:54;23.50;95.90
15328;DHT22;7764;51.430;6.840;2022-08-05T14:48:21;23.50;97.40
15328;DHT22;7764;51.430;6.840;2022-08-05T14:50:49;23.50;95.10
15328;DHT22;7764;51.430;6.840;2022-08-05T14:53:18;23.60;92.40
15328;DHT22;7764;51.430;6.840;2022-08-05T14:55:48;23.60;85.90
15328;DHT22;7764;51.430;6.840;2022-08-05T14:58:19;23.70;85.40
15328;DHT22;7764;51.430;6.840;2022-08-05T15:00:51;23.80;80.90
15328;DHT22;7764;51.430;6.840;2022-08-05T15:03:18;24.00;81.30
15328;DHT22;7764;51.430;6.840;2022-08-05T15:05:45;24.10;79.00
15328;DHT22;7764;51.430;6.840;2022-08-05T15:08:12;24.20;77.10
15328;DHT22;7764;51.430;6.840;2022-08-05T15:10:41;23.90;74.50
15328;DHT22;7764;51.430;6.840;2022-08-05T15:13:09;23.70;75.90
15328;DHT22;7764;51.430;6.840;2022-08-05T15:15:38;23.50;75.70
15328;DHT22;7764;51.430;6.840;2022-08-05T15:18:05;23.50;76.00
15328;DHT22;7764;51.430;6.840;2022-08-05T15:20:34;23.50;75.90
15328;DHT22;7764;51.430;6.840;2022-08-05T15:23:02;23.30;76.30
15328;DHT22;7764;51.430;6.840;2022-08-05T15:25:31;23.10;75.30
15328;DHT22;7764;51.430;6.840;2022-08-05T15:28:00;23.20;75.90
15328;DHT22;7764;51.430;6.840;2022-08-05T15:30:28;23.10;74.50
15328;DHT22;7764;51.430;6.840;2022-08-05T15:32:57;22.90;74.30
15328;DHT22;7764;51.430;6.840;2022-08-05T15:35:25;22.80;73.80
15328;DHT22;7764;51.430;6.840;2022-08-05T15:37:55;22.90;74.30
15328;DHT22;7764;51.430;6.840;2022-08-05T15:40:25;22.80;73.00
15328;DHT22;7764;51.430;6.840;2022-08-05T15:42:52;22.70;74.00
15328;DHT22;7764;51.430;6.840;2022-08-05T15:45:24;22.70;73.30
15328;DHT22;7764;51.430;6.840;2022-08-05T15:47:51;22.70;73.20
15328;DHT22;7764;51.430;6.840;2022-08-05T15:50:18;22.60;72.80
15328;DHT22;7764;51.430;6.840;2022-08-05T15:52:45;22.50;73.30
15328;DHT22;7764;51.430;6.840;2022-08-05T15:55:12;22.60;74.20
15328;DHT22;7764;51.430;6.840;2022-08-05T15:57:41;22.50;73.70
15328;DHT22;7764;51.430;6.840;2022-08-05T16:00:09;22.50;74.30
15328;DHT22;7764;51.430;6.840;2022-08-05T16:02:37;22.40;73.20